sensor_id;sensor_type;location;lat;lon;timestamp;P1;durP1;ratioP1;P2;durP2;ratioP2
54157;SDS011;40065;49.894;10.358;2023-01-13T00:04:46;6.63;;;1.55;;
54157;SDS011;40065;49.894;10.358;2023-01-13T00:09:48;3.42;;;0.55;;
54157;SDS011;40065;49.894;10.358;2023-01-13T00:14:50;3.08;;;0.70;;
54157;SDS011;40065;49.894;10.358;2023-01-13T00:19:52;3.50;;;0.60;;
54157;SDS011;40065;49.894;10.358;2023-01-13T00:24:54;3.50;;;0.50;;
54157;SDS011;40065;49.894;10.358;2023-01-13T00:29:58;4.32;;;0.60;;
54157;SDS011;40065;49.894;10.358;2023-01-13T00:35:01;3.55;;;0.50;;
54157;SDS011;40065;49.894;10.358;2023-01-13T00:40:04;3.72;;;0.77;;
54157;SDS011;40065;49.894;10.358;2023-01-13T00:45:06;2.13;;;0.55;;
54157;SDS011;40065;49.894;10.358;2023-01-13T00:50:08;3.60;;;0.65;;
54157;SDS011;40065;49.894;10.358;2023-01-13T00:55:11;2.30;;;0.60;;
54157;SDS011;40065;49.894;10.358;2023-01-13T01:00:13;3.38;;;0.65;;
54157;SDS011;40065;49.894;10.358;2023-01-13T01:05:15;1.95;;;0.60;;
54157;SDS011;40065;49.894;10.358;2023-01-13T01:10:17;1.70;;;0.70;;
54157;SDS011;40065;49.894;10.358;2023-01-13T01:15:19;2.08;;;0.40;;
54157;SDS011;40065;49.894;10.358;2023-01-13T01:20:21;3.03;;;0.50;;
54157;SDS011;40065;49.894;10.358;2023-01-13T01:25:23;1.90;;;0.45;;
54157;SDS011;40065;49.894;10.358;2023-01-13T01:30:25;2.10;;;0.50;;
54157;SDS011;40065;49.894;10.358;2023-01-13T01:35:27;2.58;;;0.68;;
54157;SDS011;40065;49.894;10.358;2023-01-13T01:40:29;2.22;;;0.68;;
54157;SDS011;40065;49.894;10.358;2023-01-13T01:45:30;4.88;;;0.77;;
54157;SDS011;40065;49.894;10.358;2023-01-13T01:50:33;2.05;;;0.50;;
54157;SDS011;40065;49.894;10.358;2023-01-13T01:55:36;2.78;;;0.50;;
54157;SDS011;40065;49.894;10.358;2023-01-13T02:00:39;1.95;;;0.50;;
54157;SDS011;40065;49.894;10.358;2023-01-13T02:05:41;3.30;;;0.50;;
54157;SDS011;40065;49.894;10.358;2023-01-13T02:10:43;4.55;;;0.77;;
54157;SDS011;40065;49.894;10.358;2023-01-13T02:21:12;2.25;;;0.50;;
54157;SDS011;40065;49.894;10.358;2023-01-13T02:31:29;1.30;;;0.40;;
54157;SDS011;40065;49.894;10.358;2023-01-13T02:41:57;2.15;;;0.50;;
54157;SDS011;40065;49.894;10.358;2023-01-13T02:47:29;1.95;;;0.60;;
54157;SDS011;40065;49.894;10.358;2023-01-13T02:52:44;3.03;;;0.38;;
54157;SDS011;40065;49.894;10.358;2023-01-13T02:57:53;3.47;;;0.70;;
54157;SDS011;40065;49.894;10.358;2023-01-13T03:02:59;2.70;;;0.45;;
54157;SDS011;40065;49.894;10.358;2023-01-13T03:08:22;1.80;;;0.43;;
54157;SDS011;40065;49.894;10.358;2023-01-13T03:13:50;2.05;;;0.70;;
54157;SDS011;40065;49.894;10.358;2023-01-13T03:24:16;2.72;;;0.50;;
54157;SDS011;40065;49.894;10.358;2023-01-13T03:29:26;1.42;;;0.45;;
54157;SDS011;40065;49.894;10.358;2023-01-13T03:35:06;2.85;;;0.50;;
54157;SDS011;40065;49.894;10.358;2023-01-13T03:40:17;2.75;;;0.60;;
54157;SDS011;40065;49.894;10.358;2023-01-13T03:45:26;0.75;;;0.40;;
54157;SDS011;40065;49.894;10.358;2023-01-13T03:50:36;1.52;;;0.43;;
54157;SDS011;40065;49.894;10.358;2023-01-13T03:55:43;1.73;;;0.30;;
54157;SDS011;40065;49.894;10.358;2023-01-13T04:01:00;2.15;;;0.75;;
54157;SDS011;40065;49.894;10.358;2023-01-13T04:11:45;2.20;;;0.50;;
54157;SDS011;40065;49.894;10.358;2023-01-13T04:16:53;3.70;;;0.55;;
54157;SDS011;40065;49.894;10.358;2023-01-13T04:21:56;1.15;;;0.40;;
54157;SDS011;40065;49.894;10.358;2023-01-13T04:26:58;2.33;;;0.40;;
54157;SDS011;40065;49.894;10.358;2023-01-13T04:31:59;1.27;;;0.45;;
54157;SDS011;40065;49.894;10.358;2023-01-13T04:37:01;1.75;;;0.40;;
54157;SDS011;40065;49.894;10.358;2023-01-13T04:42:03;2.72;;;0.40;;
54157;SDS011;40065;49.894;10.358;2023-01-13T04:47:05;1.77;;;0.40;;
54157;SDS011;40065;49.894;10.358;2023-01-13T04:52:07;1.20;;;0.47;;
54157;SDS011;40065;49.894;10.358;2023-01-13T04:57:08;1.65;;;0.30;;
54157;SDS011;40065;49.894;10.358;2023-01-13T05:02:10;1.88;;;0.50;;
54157;SDS011;40065;49.894;10.358;2023-01-13T05:07:19;1.40;;;0.52;;
54157;SDS011;40065;49.894;10.358;2023-01-13T05:12:21;2.00;;;0.50;;
54157;SDS011;40065;49.894;10.358;2023-01-13T05:17:42;4.07;;;0.47;;
54157;SDS011;40065;49.894;10.358;2023-01-13T05:22:44;0.90;;;0.40;;
54157;SDS011;40065;49.894;10.358;2023-01-13T05:28:05;0.50;;;0.30;;
54157;SDS011;40065;49.894;10.358;2023-01-13T05:33:08;0.73;;;0.50;;
54157;SDS011;40065;49.894;10.358;2023-01-13T05:38:11;0.57;;;0.40;;
54157;SDS011;40065;49.894;10.358;2023-01-13T05:43:17;1.20;;;0.30;;
54157;SDS011;40065;49.894;10.358;2023-01-13T05:48:21;0.68;;;0.30;;
54157;SDS011;40065;49.894;10.358;2023-01-13T05:53:25;1.65;;;0.50;;
54157;SDS011;40065;49.894;10.358;2023-01-13T05:58:27;1.77;;;0.32;;
54157;SDS011;40065;49.894;10.358;2023-01-13T06:03:29;0.98;;;0.30;;
54157;SDS011;40065;49.894;10.358;2023-01-13T06:08:31;1.80;;;0.50;;
54157;SDS011;40065;49.894;10.358;2023-01-13T06:13:33;1.08;;;0.50;;
54157;SDS011;40065;49.894;10.358;2023-01-13T06:18:35;1.27;;;0.43;;
54157;SDS011;40065;49.894;10.358;2023-01-13T06:23:36;2.28;;;1.20;;
54157;SDS011;40065;49.894;10.358;2023-01-13T06:28:38;2.25;;;0.60;;
54157;SDS011;40065;49.894;10.358;2023-01-13T06:33:44;1.23;;;0.68;;
54157;SDS011;40065;49.894;10.358;2023-01-13T06:38:53;2.28;;;0.80;;
54157;SDS011;40065;49.894;10.358;2023-01-13T06:43:57;2.20;;;0.47;;
54157;SDS011;40065;49.894;10.358;2023-01-13T06:48:59;1.45;;;0.50;;
54157;SDS011;40065;49.894;10.358;2023-01-13T06:54:00;2.42;;;0.50;;
54157;SDS011;40065;49.894;10.358;2023-01-13T06:59:02;1.27;;;0.40;;
54157;SDS011;40065;49.894;10.358;2023-01-13T07:04:04;2.15;;;0.50;;
54157;SDS011;40065;49.894;10.358;2023-01-13T07:09:06;0.85;;;0.35;;
54157;SDS011;40065;49.894;10.358;2023-01-13T07:14:07;2.25;;;0.70;;
54157;SDS011;40065;49.894;10.358;2023-01-13T07:19:28;2.92;;;0.73;;
54157;SDS011;40065;49.894;10.358;2023-01-13T07:24:30;5.38;;;0.82;;
54157;SDS011;40065;49.894;10.358;2023-01-13T07:29:32;2.50;;;0.60;;
54157;SDS011;40065;49.894;10.358;2023-01-13T07:34:33;1.60;;;0.70;;
54157;SDS011;40065;49.894;10.358;2023-01-13T07:39:35;3.40;;;0.88;;
54157;SDS011;40065;49.894;10.358;2023-01-13T07:44:37;3.55;;;1.20;;
54157;SDS011;40065;49.894;10.358;2023-01-13T07:49:39;3.13;;;0.88;;
54157;SDS011;40065;49.894;10.358;2023-01-13T07:54:40;3.47;;;0.70;;
54157;SDS011;40065;49.894;10.358;2023-01-13T07:59:42;2.13;;;0.50;;
54157;SDS011;40065;49.894;10.358;2023-01-13T08:04:44;3.35;;;0.77;;
54157;SDS011;40065;49.894;10.358;2023-01-13T08:09:46;1.00;;;0.50;;
54157;SDS011;40065;49.894;10.358;2023-01-13T08:14:47;0.90;;;0.32;;
54157;SDS011;40065;49.894;10.358;2023-01-13T08:19:51;1.83;;;0.30;;
54157;SDS011;40065;49.894;10.358;2023-01-13T08:24:52;2.35;;;0.22;;
54157;SDS011;40065;49.894;10.358;2023-01-13T08:29:54;0.93;;;0.40;;
54157;SDS011;40065;49.894;10.358;2023-01-13T08:34:56;1.65;;;0.55;;
54157;SDS011;40065;49.894;10.358;2023-01-13T08:39:57;2.15;;;0.40;;
54157;SDS011;40065;49.894;10.358;2023-01-13T08:44:59;1.42;;;0.50;;
54157;SDS011;40065;49.894;10.358;2023-01-13T08:50:01;0.93;;;0.38;;
54157;SDS011;40065;49.894;10.358;2023-01-13T08:55:03;1.00;;;0.25;;
54157;SDS011;40065;49.894;10.358;2023-01-13T09:00:06;0.40;;;0.20;;
54157;SDS011;40065;49.894;10.358;2023-01-13T09:05:10;1.10;;;0.20;;
54157;SDS011;40065;49.894;10.358;2023-01-13T09:10:12;2.10;;;0.30;;
54157;SDS011;40065;49.894;10.358;2023-01-13T09:15:14;0.85;;;0.40;;
54157;SDS011;40065;49.894;10.358;2023-01-13T09:25:20;1.75;;;0.35;;
54157;SDS011;40065;49.894;10.358;2023-01-13T09:30:22;2.33;;;0.50;;
54157;SDS011;40065;49.894;10.358;2023-01-13T09:35:24;3.72;;;1.20;;
54157;SDS011;40065;49.894;10.358;2023-01-13T09:40:26;4.13;;;0.60;;
54157;SDS011;40065;49.894;10.358;2023-01-13T09:45:29;2.55;;;0.65;;
54157;SDS011;40065;49.894;10.358;2023-01-13T09:55:42;1.45;;;0.38;;
54157;SDS011;40065;49.894;10.358;2023-01-13T10:11:42;0.77;;;0.20;;
54157;SDS011;40065;49.894;10.358;2023-01-13T10:17:20;0.50;;;0.20;;
54157;SDS011;40065;49.894;10.358;2023-01-13T10:27:39;1.42;;;0.40;;
54157;SDS011;40065;49.894;10.358;2023-01-13T10:32:42;3.40;;;0.52;;
54157;SDS011;40065;49.894;10.358;2023-01-13T10:37:54;1.92;;;0.40;;
54157;SDS011;40065;49.894;10.358;2023-01-13T10:43:03;2.05;;;0.45;;
54157;SDS011;40065;49.894;10.358;2023-01-13T10:48:09;1.75;;;0.40;;
54157;SDS011;40065;49.894;10.358;2023-01-13T10:53:18;2.42;;;0.30;;
54157;SDS011;40065;49.894;10.358;2023-01-13T10:58:24;2.20;;;1.05;;
54157;SDS011;40065;49.894;10.358;2023-01-13T11:03:33;1.77;;;0.40;;
54157;SDS011;40065;49.894;10.358;2023-01-13T11:08:45;1.85;;;0.50;;
54157;SDS011;40065;49.894;10.358;2023-01-13T11:13:49;1.15;;;0.50;;
54157;SDS011;40065;49.894;10.358;2023-01-13T11:19:13;3.85;;;0.60;;
54157;SDS011;40065;49.894;10.358;2023-01-13T11:24:24;2.33;;;0.68;;
54157;SDS011;40065;49.894;10.358;2023-01-13T11:29:29;3.30;;;0.70;;
54157;SDS011;40065;49.894;10.358;2023-01-13T11:34:38;1.63;;;0.50;;
54157;SDS011;40065;49.894;10.358;2023-01-13T11:49:54;4.03;;;0.63;;
54157;SDS011;40065;49.894;10.358;2023-01-13T12:16:22;2.00;;;0.70;;
54157;SDS011;40065;49.894;10.358;2023-01-13T12:22:17;4.38;;;0.80;;
54157;SDS011;40065;49.894;10.358;2023-01-13T12:32:18;4.13;;;0.80;;
54157;SDS011;40065;49.894;10.358;2023-01-13T12:37:31;3.05;;;0.57;;
54157;SDS011;40065;49.894;10.358;2023-01-13T12:47:59;6.28;;;0.82;;
54157;SDS011;40065;49.894;10.358;2023-01-13T12:53:47;5.72;;;0.90;;
54157;SDS011;40065;49.894;10.358;2023-01-13T12:58:28;4.47;;;1.00;;
54157;SDS011;40065;49.894;10.358;2023-01-13T13:03:31;6.20;;;0.93;;
54157;SDS011;40065;49.894;10.358;2023-01-13T13:13:45;4.40;;;1.00;;
54157;SDS011;40065;49.894;10.358;2023-01-13T13:18:48;3.95;;;0.88;;
54157;SDS011;40065;49.894;10.358;2023-01-13T13:34:03;5.90;;;1.10;;
54157;SDS011;40065;49.894;10.358;2023-01-13T13:39:23;5.53;;;1.00;;
54157;SDS011;40065;49.894;10.358;2023-01-13T13:44:46;3.67;;;0.90;;
54157;SDS011;40065;49.894;10.358;2023-01-13T13:55:21;5.20;;;1.00;;
54157;SDS011;40065;49.894;10.358;2023-01-13T14:00:34;5.75;;;1.52;;
54157;SDS011;40065;49.894;10.358;2023-01-13T14:05:38;4.45;;;1.10;;
54157;SDS011;40065;49.894;10.358;2023-01-13T14:10:40;2.50;;;0.80;;
54157;SDS011;40065;49.894;10.358;2023-01-13T14:15:45;4.90;;;1.10;;
54157;SDS011;40065;49.894;10.358;2023-01-13T14:20:53;4.18;;;0.90;;
54157;SDS011;40065;49.894;10.358;2023-01-13T14:26:08;3.30;;;1.13;;
54157;SDS011;40065;49.894;10.358;2023-01-13T14:31:13;4.68;;;0.88;;
54157;SDS011;40065;49.894;10.358;2023-01-13T14:36:19;5.97;;;2.20;;
54157;SDS011;40065;49.894;10.358;2023-01-13T14:41:23;7.50;;;1.10;;
54157;SDS011;40065;49.894;10.358;2023-01-13T14:46:39;6.88;;;1.45;;
54157;SDS011;40065;49.894;10.358;2023-01-13T14:51:43;7.45;;;1.10;;
54157;SDS011;40065;49.894;10.358;2023-01-13T15:01:51;5.93;;;0.90;;
54157;SDS011;40065;49.894;10.358;2023-01-13T15:06:55;3.63;;;0.90;;
54157;SDS011;40065;49.894;10.358;2023-01-13T15:11:58;6.03;;;0.95;;
54157;SDS011;40065;49.894;10.358;2023-01-13T15:17:00;5.68;;;1.40;;
54157;SDS011;40065;49.894;10.358;2023-01-13T15:22:03;8.07;;;1.50;;
54157;SDS011;40065;49.894;10.358;2023-01-13T15:27:10;9.07;;;1.60;;
54157;SDS011;40065;49.894;10.358;2023-01-13T15:32:18;8.50;;;2.00;;
54157;SDS011;40065;49.894;10.358;2023-01-13T15:37:21;8.55;;;2.17;;
54157;SDS011;40065;49.894;10.358;2023-01-13T15:42:25;14.35;;;1.83;;
54157;SDS011;40065;49.894;10.358;2023-01-13T15:47:46;7.80;;;2.15;;
54157;SDS011;40065;49.894;10.358;2023-01-13T15:52:48;11.80;;;3.35;;
54157;SDS011;40065;49.894;10.358;2023-01-13T15:57:50;7.05;;;1.38;;
54157;SDS011;40065;49.894;10.358;2023-01-13T16:02:51;4.38;;;1.10;;
54157;SDS011;40065;49.894;10.358;2023-01-13T16:07:53;3.92;;;0.90;;
54157;SDS011;40065;49.894;10.358;2023-01-13T16:12:55;6.68;;;1.10;;
54157;SDS011;40065;49.894;10.358;2023-01-13T16:17:58;5.15;;;1.20;;
54157;SDS011;40065;49.894;10.358;2023-01-13T16:23:01;4.28;;;0.88;;
54157;SDS011;40065;49.894;10.358;2023-01-13T16:28:03;6.13;;;0.90;;
54157;SDS011;40065;49.894;10.358;2023-01-13T16:33:05;10.68;;;1.90;;
54157;SDS011;40065;49.894;10.358;2023-01-13T16:38:08;8.20;;;2.15;;
54157;SDS011;40065;49.894;10.358;2023-01-13T16:43:15;10.75;;;3.15;;
54157;SDS011;40065;49.894;10.358;2023-01-13T16:48:18;13.10;;;4.15;;
54157;SDS011;40065;49.894;10.358;2023-01-13T16:53:20;8.93;;;1.70;;
54157;SDS011;40065;49.894;10.358;2023-01-13T16:58:22;5.68;;;2.15;;
54157;SDS011;40065;49.894;10.358;2023-01-13T17:03:24;6.97;;;1.30;;
54157;SDS011;40065;49.894;10.358;2023-01-13T17:08:26;5.82;;;1.05;;
54157;SDS011;40065;49.894;10.358;2023-01-13T17:13:27;4.60;;;1.50;;
54157;SDS011;40065;49.894;10.358;2023-01-13T17:18:29;5.47;;;1.30;;
54157;SDS011;40065;49.894;10.358;2023-01-13T17:23:31;6.25;;;1.10;;
54157;SDS011;40065;49.894;10.358;2023-01-13T17:28:33;4.55;;;1.20;;
54157;SDS011;40065;49.894;10.358;2023-01-13T17:33:35;4.20;;;1.05;;
54157;SDS011;40065;49.894;10.358;2023-01-13T17:38:37;6.22;;;1.20;;
54157;SDS011;40065;49.894;10.358;2023-01-13T17:43:39;6.88;;;1.13;;
54157;SDS011;40065;49.894;10.358;2023-01-13T17:48:40;5.10;;;1.05;;
54157;SDS011;40065;49.894;10.358;2023-01-13T17:53:42;4.50;;;1.23;;
54157;SDS011;40065;49.894;10.358;2023-01-13T17:58:45;6.07;;;1.15;;
54157;SDS011;40065;49.894;10.358;2023-01-13T18:03:47;10.55;;;3.08;;
54157;SDS011;40065;49.894;10.358;2023-01-13T18:08:49;9.23;;;1.70;;
54157;SDS011;40065;49.894;10.358;2023-01-13T18:13:52;8.77;;;2.28;;
54157;SDS011;40065;49.894;10.358;2023-01-13T18:18:57;4.57;;;1.35;;
54157;SDS011;40065;49.894;10.358;2023-01-13T18:24:18;5.55;;;1.30;;
54157;SDS011;40065;49.894;10.358;2023-01-13T18:29:38;9.45;;;1.60;;
54157;SDS011;40065;49.894;10.358;2023-01-13T18:34:40;4.18;;;1.25;;
54157;SDS011;40065;49.894;10.358;2023-01-13T18:39:42;6.30;;;1.10;;
54157;SDS011;40065;49.894;10.358;2023-01-13T18:44:44;8.88;;;1.70;;
54157;SDS011;40065;49.894;10.358;2023-01-13T18:49:45;6.90;;;1.23;;
54157;SDS011;40065;49.894;10.358;2023-01-13T18:54:47;7.32;;;1.70;;
54157;SDS011;40065;49.894;10.358;2023-01-13T18:59:50;6.55;;;2.22;;
54157;SDS011;40065;49.894;10.358;2023-01-13T19:04:52;9.68;;;1.50;;
54157;SDS011;40065;49.894;10.358;2023-01-13T19:09:54;6.03;;;1.40;;
54157;SDS011;40065;49.894;10.358;2023-01-13T19:14:56;6.65;;;1.50;;
54157;SDS011;40065;49.894;10.358;2023-01-13T19:19:59;6.72;;;1.50;;
54157;SDS011;40065;49.894;10.358;2023-01-13T19:25:03;9.20;;;1.50;;
54157;SDS011;40065;49.894;10.358;2023-01-13T19:30:06;6.28;;;1.30;;
54157;SDS011;40065;49.894;10.358;2023-01-13T19:35:08;5.13;;;1.20;;
54157;SDS011;40065;49.894;10.358;2023-01-13T19:40:13;8.43;;;1.50;;
54157;SDS011;40065;49.894;10.358;2023-01-13T19:45:15;6.45;;;1.42;;
54157;SDS011;40065;49.894;10.358;2023-01-13T19:50:35;6.55;;;1.60;;
54157;SDS011;40065;49.894;10.358;2023-01-13T19:55:42;10.20;;;1.60;;
54157;SDS011;40065;49.894;10.358;2023-01-13T20:00:45;5.68;;;1.42;;
54157;SDS011;40065;49.894;10.358;2023-01-13T20:05:51;11.00;;;2.22;;
54157;SDS011;40065;49.894;10.358;2023-01-13T20:10:54;11.25;;;1.55;;
54157;SDS011;40065;49.894;10.358;2023-01-13T20:16:15;8.25;;;1.70;;
54157;SDS011;40065;49.894;10.358;2023-01-13T20:21:18;7.65;;;1.08;;
54157;SDS011;40065;49.894;10.358;2023-01-13T20:26:20;7.88;;;2.00;;
54157;SDS011;40065;49.894;10.358;2023-01-13T20:31:21;8.10;;;1.40;;
54157;SDS011;40065;49.894;10.358;2023-01-13T20:36:25;6.68;;;1.23;;
54157;SDS011;40065;49.894;10.358;2023-01-13T20:41:33;8.75;;;1.50;;
54157;SDS011;40065;49.894;10.358;2023-01-13T20:46:53;11.00;;;1.42;;
54157;SDS011;40065;49.894;10.358;2023-01-13T20:51:56;9.25;;;2.35;;
54157;SDS011;40065;49.894;10.358;2023-01-13T20:56:58;9.57;;;2.22;;
54157;SDS011;40065;49.894;10.358;2023-01-13T21:02:01;6.57;;;1.33;;
54157;SDS011;40065;49.894;10.358;2023-01-13T21:07:03;5.55;;;1.33;;
54157;SDS011;40065;49.894;10.358;2023-01-13T21:12:05;5.80;;;1.40;;
54157;SDS011;40065;49.894;10.358;2023-01-13T21:17:26;6.68;;;1.15;;
54157;SDS011;40065;49.894;10.358;2023-01-13T21:22:47;9.07;;;1.45;;
54157;SDS011;40065;49.894;10.358;2023-01-13T21:27:51;8.15;;;1.40;;
54157;SDS011;40065;49.894;10.358;2023-01-13T21:33:00;9.68;;;1.30;;
54157;SDS011;40065;49.894;10.358;2023-01-13T21:38:04;6.43;;;1.57;;
54157;SDS011;40065;49.894;10.358;2023-01-13T21:43:07;8.40;;;1.30;;
54157;SDS011;40065;49.894;10.358;2023-01-13T21:48:30;8.20;;;2.10;;
54157;SDS011;40065;49.894;10.358;2023-01-13T21:53:32;8.55;;;1.30;;
54157;SDS011;40065;49.894;10.358;2023-01-13T21:58:33;7.00;;;1.52;;
54157;SDS011;40065;49.894;10.358;2023-01-13T22:03:36;8.93;;;1.55;;
54157;SDS011;40065;49.894;10.358;2023-01-13T22:08:57;11.70;;;1.90;;
54157;SDS011;40065;49.894;10.358;2023-01-13T22:14:01;9.50;;;1.83;;
54157;SDS011;40065;49.894;10.358;2023-01-13T22:19:07;9.65;;;1.90;;
54157;SDS011;40065;49.894;10.358;2023-01-13T22:24:10;4.83;;;1.40;;
54157;SDS011;40065;49.894;10.358;2023-01-13T22:29:12;9.57;;;1.70;;
54157;SDS011;40065;49.894;10.358;2023-01-13T22:34:13;7.72;;;1.70;;
54157;SDS011;40065;49.894;10.358;2023-01-13T22:39:15;8.05;;;1.60;;
54157;SDS011;40065;49.894;10.358;2023-01-13T22:44:17;9.38;;;2.45;;
54157;SDS011;40065;49.894;10.358;2023-01-13T22:49:20;4.82;;;1.55;;
54157;SDS011;40065;49.894;10.358;2023-01-13T22:54:22;6.38;;;1.30;;
54157;SDS011;40065;49.894;10.358;2023-01-13T22:59:23;7.45;;;1.50;;
54157;SDS011;40065;49.894;10.358;2023-01-13T23:04:25;7.22;;;1.60;;
54157;SDS011;40065;49.894;10.358;2023-01-13T23:09:27;5.20;;;1.35;;
54157;SDS011;40065;49.894;10.358;2023-01-13T23:14:30;9.95;;;1.75;;
54157;SDS011;40065;49.894;10.358;2023-01-13T23:19:32;12.00;;;1.42;;
54157;SDS011;40065;49.894;10.358;2023-01-13T23:24:33;8.88;;;1.50;;
54157;SDS011;40065;49.894;10.358;2023-01-13T23:29:35;6.90;;;1.75;;
54157;SDS011;40065;49.894;10.358;2023-01-13T23:34:37;7.45;;;1.60;;
54157;SDS011;40065;49.894;10.358;2023-01-13T23:39:39;8.60;;;1.25;;
54157;SDS011;40065;49.894;10.358;2023-01-13T23:44:40;7.78;;;1.23;;
54157;SDS011;40065;49.894;10.358;2023-01-13T23:49:42;7.78;;;1.30;;
54157;SDS011;40065;49.894;10.358;2023-01-13T23:54:44;7.30;;;1.20;;
54157;SDS011;40065;49.894;10.358;2023-01-13T23:59:46;7.28;;;1.67;;
